sensor_id;sensor_type;location;lat;lon;timestamp;pressure;altitude;pressure_sealevel;temperature;humidity
4085;BME280;2057;50.858;6.572;2023-03-22T00:00:35;99909.28;;;10.54;100.00
4085;BME280;2057;50.858;6.572;2023-03-22T00:03:04;99896.41;;;10.49;100.00
4085;BME280;2057;50.858;6.572;2023-03-22T00:05:30;99889.81;;;10.53;100.00
4085;BME280;2057;50.858;6.572;2023-03-22T00:07:56;99889.09;;;10.57;100.00
4085;BME280;2057;50.858;6.572;2023-03-22T00:10:23;99886.44;;;10.54;100.00
4085;BME280;2057;50.858;6.572;2023-03-22T00:12:50;99884.59;;;10.50;100.00
4085;BME280;2057;50.858;6.572;2023-03-22T00:15:16;99890.47;;;10.49;100.00
4085;BME280;2057;50.858;6.572;2023-03-22T00:17:42;99889.06;;;10.56;100.00
4085;BME280;2057;50.858;6.572;2023-03-22T00:20:09;99881.25;;;10.51;100.00
4085;BME280;2057;50.858;6.572;2023-03-22T00:22:38;99877.00;;;10.50;100.00
4085;BME280;2057;50.858;6.572;2023-03-22T00:25:05;99882.06;;;10.50;100.00
4085;BME280;2057;50.858;6.572;2023-03-22T00:27:31;99878.72;;;10.51;100.00
4085;BME280;2057;50.858;6.572;2023-03-22T00:29:56;99882.72;;;10.46;100.00
4085;BME280;2057;50.858;6.572;2023-03-22T00:32:22;99874.31;;;10.47;100.00
4085;BME280;2057;50.858;6.572;2023-03-22T00:34:47;99865.72;;;10.43;100.00
4085;BME280;2057;50.858;6.572;2023-03-22T00:37:12;99864.88;;;10.43;100.00
4085;BME280;2057;50.858;6.572;2023-03-22T00:39:40;99862.00;;;10.56;100.00
4085;BME280;2057;50.858;6.572;2023-03-22T00:42:06;99859.41;;;10.55;100.00
4085;BME280;2057;50.858;6.572;2023-03-22T00:44:31;99851.44;;;10.45;100.00
4085;BME280;2057;50.858;6.572;2023-03-22T00:46:57;99846.53;;;10.50;100.00
4085;BME280;2057;50.858;6.572;2023-03-22T00:49:22;99845.72;;;10.51;100.00
4085;BME280;2057;50.858;6.572;2023-03-22T00:51:49;99838.75;;;10.45;100.00
4085;BME280;2057;50.858;6.572;2023-03-22T00:54:15;99843.81;;;10.45;100.00
4085;BME280;2057;50.858;6.572;2023-03-22T00:56:41;99838.75;;;10.45;100.00
4085;BME280;2057;50.858;6.572;2023-03-22T00:59:09;99830.31;;;10.46;100.00
4085;BME280;2057;50.858;6.572;2023-03-22T01:01:34;99838.56;;;10.41;100.00
4085;BME280;2057;50.858;6.572;2023-03-22T01:04:00;99837.50;;;10.35;100.00
4085;BME280;2057;50.858;6.572;2023-03-22T01:06:25;99838.34;;;10.36;100.00
4085;BME280;2057;50.858;6.572;2023-03-22T01:08:51;99829.00;;;10.35;100.00
4085;BME280;2057;50.858;6.572;2023-03-22T01:11:19;99823.88;;;10.33;100.00
4085;BME280;2057;50.858;6.572;2023-03-22T01:13:45;99825.47;;;10.31;100.00
4085;BME280;2057;50.858;6.572;2023-03-22T01:16:12;99825.31;;;10.27;100.00
4085;BME280;2057;50.858;6.572;2023-03-22T01:18:37;99821.97;;;10.28;100.00
4085;BME280;2057;50.858;6.572;2023-03-22T01:21:03;99815.09;;;10.25;100.00
4085;BME280;2057;50.858;6.572;2023-03-22T01:23:31;99816.09;;;10.29;100.00
4085;BME280;2057;50.858;6.572;2023-03-22T01:25:56;99809.28;;;10.28;100.00
4085;BME280;2057;50.858;6.572;2023-03-22T01:28:22;99813.41;;;10.26;100.00
4085;BME280;2057;50.858;6.572;2023-03-22T01:30:47;99809.28;;;10.28;100.00
4085;BME280;2057;50.858;6.572;2023-03-22T01:33:14;99813.50;;;10.27;100.00
4085;BME280;2057;50.858;6.572;2023-03-22T01:35:40;99804.97;;;10.25;100.00
4085;BME280;2057;50.858;6.572;2023-03-22T01:38:05;99805.72;;;10.23;100.00
4085;BME280;2057;50.858;6.572;2023-03-22T01:40:31;99800.31;;;10.15;100.00
4085;BME280;2057;50.858;6.572;2023-03-22T01:42:57;99794.63;;;10.20;100.00
4085;BME280;2057;50.858;6.572;2023-03-22T01:45:34;99795.47;;;10.21;100.00
4085;BME280;2057;50.858;6.572;2023-03-22T01:50:37;99799.81;;;10.02;100.00
4085;BME280;2057;50.858;6.572;2023-03-22T01:53:04;99786.91;;;9.96;100.00
4085;BME280;2057;50.858;6.572;2023-03-22T01:55:32;99789.44;;;9.96;100.00
4085;BME280;2057;50.858;6.572;2023-03-22T01:57:58;99790.75;;;9.86;100.00
4085;BME280;2057;50.858;6.572;2023-03-22T02:00:25;99787.91;;;9.79;100.00
4085;BME280;2057;50.858;6.572;2023-03-22T02:02:51;99787.09;;;9.80;100.00
4085;BME280;2057;50.858;6.572;2023-03-22T02:05:17;99779.88;;;9.68;100.00
4085;BME280;2057;50.858;6.572;2023-03-22T02:07:43;99780.59;;;9.65;100.00
4085;BME280;2057;50.858;6.572;2023-03-22T02:10:15;99775.34;;;9.61;100.00
4085;BME280;2057;50.858;6.572;2023-03-22T02:15:44;99759.88;;;9.54;100.00
4085;BME280;2057;50.858;6.572;2023-03-22T02:18:50;99758.81;;;9.49;100.00
4085;BME280;2057;50.858;6.572;2023-03-22T02:29:09;99752.91;;;9.49;100.00
4085;BME280;2057;50.858;6.572;2023-03-22T02:31:47;99754.59;;;9.50;100.00
4085;BME280;2057;50.858;6.572;2023-03-22T02:34:42;99750.19;;;9.44;100.00
4085;BME280;2057;50.858;6.572;2023-03-22T02:45:26;99737.75;;;9.29;100.00
4085;BME280;2057;50.858;6.572;2023-03-22T02:48:04;99737.53;;;9.24;100.00
4085;BME280;2057;50.858;6.572;2023-03-22T02:50:51;99736.16;;;9.31;100.00
4085;BME280;2057;50.858;6.572;2023-03-22T02:53:21;99723.47;;;9.31;100.00
4085;BME280;2057;50.858;6.572;2023-03-22T02:55:57;99717.78;;;9.37;100.00
4085;BME280;2057;50.858;6.572;2023-03-22T02:58:32;99723.59;;;9.34;100.00
4085;BME280;2057;50.858;6.572;2023-03-22T03:01:04;99715.19;;;9.35;100.00
4085;BME280;2057;50.858;6.572;2023-03-22T03:03:32;99715.44;;;9.41;100.00
4085;BME280;2057;50.858;6.572;2023-03-22T03:06:05;99718.66;;;9.37;100.00
4085;BME280;2057;50.858;6.572;2023-03-22T03:08:35;99722.13;;;9.39;100.00
4085;BME280;2057;50.858;6.572;2023-03-22T03:11:03;99723.72;;;9.37;100.00
4085;BME280;2057;50.858;6.572;2023-03-22T03:13:29;99718.47;;;9.33;100.00
4085;BME280;2057;50.858;6.572;2023-03-22T03:16:00;99718.88;;;9.22;100.00
4085;BME280;2057;50.858;6.572;2023-03-22T03:18:51;99719.47;;;9.17;100.00
4085;BME280;2057;50.858;6.572;2023-03-22T03:27:13;99708.84;;;9.04;100.00
4085;BME280;2057;50.858;6.572;2023-03-22T03:32:16;99723.75;;;8.98;100.00
4085;BME280;2057;50.858;6.572;2023-03-22T03:34:54;99718.59;;;8.95;100.00
4085;BME280;2057;50.858;6.572;2023-03-22T03:37:29;99713.25;;;8.89;100.00
4085;BME280;2057;50.858;6.572;2023-03-22T03:40:07;99714.47;;;8.77;100.00
4085;BME280;2057;50.858;6.572;2023-03-22T03:42:35;99711.59;;;8.70;100.00
4085;BME280;2057;50.858;6.572;2023-03-22T03:45:02;99709.00;;;8.68;100.00
4085;BME280;2057;50.858;6.572;2023-03-22T03:47:29;99711.38;;;8.65;100.00
4085;BME280;2057;50.858;6.572;2023-03-22T03:49:55;99709.00;;;8.68;100.00
4085;BME280;2057;50.858;6.572;2023-03-22T03:52:22;99704.78;;;8.69;100.00
4085;BME280;2057;50.858;6.572;2023-03-22T03:54:49;99709.78;;;8.67;100.00
4085;BME280;2057;50.858;6.572;2023-03-22T03:57:17;99708.59;;;8.59;100.00
4085;BME280;2057;50.858;6.572;2023-03-22T03:59:42;99705.00;;;8.54;100.00
4085;BME280;2057;50.858;6.572;2023-03-22T04:02:07;99705.66;;;8.50;100.00
4085;BME280;2057;50.858;6.572;2023-03-22T04:04:33;99708.19;;;8.50;100.00
4085;BME280;2057;50.858;6.572;2023-03-22T04:06:59;99706.44;;;8.48;100.00
4085;BME280;2057;50.858;6.572;2023-03-22T04:09:33;99715.03;;;8.52;100.00
4085;BME280;2057;50.858;6.572;2023-03-22T04:11:59;99708.44;;;8.56;100.00
4085;BME280;2057;50.858;6.572;2023-03-22T04:14:25;99710.19;;;8.57;100.00
4085;BME280;2057;50.858;6.572;2023-03-22T04:16:51;99709.25;;;8.55;100.00
4085;BME280;2057;50.858;6.572;2023-03-22T04:19:17;99701.66;;;8.55;100.00
4085;BME280;2057;50.858;6.572;2023-03-22T04:21:42;99703.59;;;8.60;100.00
4085;BME280;2057;50.858;6.572;2023-03-22T04:24:08;99702.78;;;8.61;100.00
4085;BME280;2057;50.858;6.572;2023-03-22T04:26:34;99698.47;;;8.59;100.00
4085;BME280;2057;50.858;6.572;2023-03-22T04:28:59;99700.22;;;8.60;100.00
4085;BME280;2057;50.858;6.572;2023-03-22T04:31:28;99686.63;;;8.58;100.00
4085;BME280;2057;50.858;6.572;2023-03-22T04:33:53;99682.28;;;8.55;100.00
4085;BME280;2057;50.858;6.572;2023-03-22T04:36:24;99682.41;;;8.58;100.00
4085;BME280;2057;50.858;6.572;2023-03-22T04:38:50;99681.69;;;8.61;100.00
4085;BME280;2057;50.858;6.572;2023-03-22T04:41:16;99684.50;;;8.67;100.00
4085;BME280;2057;50.858;6.572;2023-03-22T04:43:42;99678.16;;;8.77;100.00
4085;BME280;2057;50.858;6.572;2023-03-22T04:46:11;99673.56;;;8.68;100.00
4085;BME280;2057;50.858;6.572;2023-03-22T04:48:39;99674.56;;;8.72;100.00
4085;BME280;2057;50.858;6.572;2023-03-22T04:51:07;99677.69;;;8.66;100.00
4085;BME280;2057;50.858;6.572;2023-03-22T04:53:34;99671.59;;;8.61;100.00
4085;BME280;2057;50.858;6.572;2023-03-22T04:56:06;99689.16;;;8.58;100.00
4085;BME280;2057;50.858;6.572;2023-03-22T04:58:34;99688.19;;;8.56;100.00
4085;BME280;2057;50.858;6.572;2023-03-22T05:01:01;99681.50;;;8.56;100.00
4085;BME280;2057;50.858;6.572;2023-03-22T05:03:26;99681.56;;;8.58;100.00
4085;BME280;2057;50.858;6.572;2023-03-22T05:05:57;99679.81;;;8.57;100.00
4085;BME280;2057;50.858;6.572;2023-03-22T05:08:24;99679.75;;;8.55;100.00
4085;BME280;2057;50.858;6.572;2023-03-22T05:10:51;99677.19;;;8.54;100.00
4085;BME280;2057;50.858;6.572;2023-03-22T05:13:17;99671.91;;;8.49;100.00
4085;BME280;2057;50.858;6.572;2023-03-22T05:15:43;99673.81;;;8.55;100.00
4085;BME280;2057;50.858;6.572;2023-03-22T05:18:09;99677.97;;;8.53;100.00
4085;BME280;2057;50.858;6.572;2023-03-22T05:20:39;99680.50;;;8.53;100.00
4085;BME280;2057;50.858;6.572;2023-03-22T05:23:06;99675.69;;;8.59;100.00
4085;BME280;2057;50.858;6.572;2023-03-22T05:25:34;99673.72;;;8.52;100.00
4085;BME280;2057;50.858;6.572;2023-03-22T05:27:59;99679.81;;;8.57;100.00
4085;BME280;2057;50.858;6.572;2023-03-22T05:30:27;99676.88;;;8.47;100.00
4085;BME280;2057;50.858;6.572;2023-03-22T05:33:00;99679.25;;;8.44;100.00
4085;BME280;2057;50.858;6.572;2023-03-22T05:35:29;99689.28;;;8.23;100.00
4085;BME280;2057;50.858;6.572;2023-03-22T05:37:54;99688.97;;;8.35;100.00
4085;BME280;2057;50.858;6.572;2023-03-22T05:40:21;99686.03;;;8.45;100.00
4085;BME280;2057;50.858;6.572;2023-03-22T05:42:46;99694.06;;;8.55;100.00
4085;BME280;2057;50.858;6.572;2023-03-22T05:45:12;99686.09;;;8.65;100.00
4085;BME280;2057;50.858;6.572;2023-03-22T05:47:37;99688.38;;;8.78;100.00
4085;BME280;2057;50.858;6.572;2023-03-22T05:50:07;99700.59;;;8.89;100.00
4085;BME280;2057;50.858;6.572;2023-03-22T05:52:33;99698.06;;;8.89;100.00
4085;BME280;2057;50.858;6.572;2023-03-22T05:54:59;99688.78;;;9.09;100.00
4085;BME280;2057;50.858;6.572;2023-03-22T05:57:24;99691.72;;;9.18;100.00
4085;BME280;2057;50.858;6.572;2023-03-22T05:59:51;99688.03;;;9.31;100.00
4085;BME280;2057;50.858;6.572;2023-03-22T06:02:18;99684.78;;;9.35;100.00
4085;BME280;2057;50.858;6.572;2023-03-22T06:04:45;99690.38;;;9.48;100.00
4085;BME280;2057;50.858;6.572;2023-03-22T06:07:11;99689.38;;;9.44;100.00
4085;BME280;2057;50.858;6.572;2023-03-22T06:09:36;99688.75;;;9.50;100.00
4085;BME280;2057;50.858;6.572;2023-03-22T06:12:02;99684.38;;;9.46;100.00
4085;BME280;2057;50.858;6.572;2023-03-22T06:14:27;99691.03;;;9.44;100.00
4085;BME280;2057;50.858;6.572;2023-03-22T06:16:54;99677.00;;;9.52;100.00
4085;BME280;2057;50.858;6.572;2023-03-22T06:19:20;99688.03;;;9.52;100.00
4085;BME280;2057;50.858;6.572;2023-03-22T06:21:45;99695.09;;;9.61;100.00
4085;BME280;2057;50.858;6.572;2023-03-22T06:24:10;99695.66;;;9.75;100.00
4085;BME280;2057;50.858;6.572;2023-03-22T06:26:36;99685.28;;;9.69;100.00
4085;BME280;2057;50.858;6.572;2023-03-22T06:29:01;99685.53;;;9.75;100.00
4085;BME280;2057;50.858;6.572;2023-03-22T06:31:29;99687.88;;;9.70;100.00
4085;BME280;2057;50.858;6.572;2023-03-22T06:33:55;99695.44;;;9.69;100.00
4085;BME280;2057;50.858;6.572;2023-03-22T06:36:20;99697.69;;;9.63;100.00
4085;BME280;2057;50.858;6.572;2023-03-22T06:38:46;99695.28;;;9.66;100.00
4085;BME280;2057;50.858;6.572;2023-03-22T06:41:11;99694.53;;;9.68;100.00
4085;BME280;2057;50.858;6.572;2023-03-22T06:43:37;99698.16;;;9.96;100.00
4085;BME280;2057;50.858;6.572;2023-03-22T06:46:02;99694.66;;;9.93;100.00
4085;BME280;2057;50.858;6.572;2023-03-22T06:48:27;99694.88;;;9.99;100.00
4085;BME280;2057;50.858;6.572;2023-03-22T06:50:53;99684.41;;;10.12;100.00
4085;BME280;2057;50.858;6.572;2023-03-22T06:53:18;99680.75;;;10.28;100.00
4085;BME280;2057;50.858;6.572;2023-03-22T06:55:44;99676.97;;;10.40;100.00
4085;BME280;2057;50.858;6.572;2023-03-22T06:58:09;99688.00;;;10.40;100.00
4085;BME280;2057;50.858;6.572;2023-03-22T07:00:35;99687.34;;;10.46;100.00
4085;BME280;2057;50.858;6.572;2023-03-22T07:03:02;99686.81;;;10.55;100.00
4085;BME280;2057;50.858;6.572;2023-03-22T07:05:28;99687.06;;;10.62;98.31
4085;BME280;2057;50.858;6.572;2023-03-22T07:07:53;99680.66;;;10.72;97.33
4085;BME280;2057;50.858;6.572;2023-03-22T07:10:18;99683.78;;;10.89;96.59
4085;BME280;2057;50.858;6.572;2023-03-22T07:12:44;99678.22;;;10.99;95.64
4085;BME280;2057;50.858;6.572;2023-03-22T07:15:10;99669.16;;;11.08;91.89
4085;BME280;2057;50.858;6.572;2023-03-22T07:17:35;99662.47;;;11.10;93.01
4085;BME280;2057;50.858;6.572;2023-03-22T07:20:00;99671.56;;;11.03;94.77
4085;BME280;2057;50.858;6.572;2023-03-22T07:22:26;99664.03;;;11.06;92.83
4085;BME280;2057;50.858;6.572;2023-03-22T07:24:52;99665.81;;;11.09;93.60
4085;BME280;2057;50.858;6.572;2023-03-22T07:27:17;99664.66;;;10.99;93.89
4085;BME280;2057;50.858;6.572;2023-03-22T07:29:43;99668.84;;;10.98;93.72
4085;BME280;2057;50.858;6.572;2023-03-22T07:32:08;99670.91;;;11.09;91.14
4085;BME280;2057;50.858;6.572;2023-03-22T07:34:37;99670.91;;;11.09;90.39
4085;BME280;2057;50.858;6.572;2023-03-22T07:37:03;99667.41;;;11.05;90.11
4085;BME280;2057;50.858;6.572;2023-03-22T07:39:29;99671.50;;;11.02;91.15
4085;BME280;2057;50.858;6.572;2023-03-22T07:41:55;99667.34;;;11.04;91.14
4085;BME280;2057;50.858;6.572;2023-03-22T07:44:21;99676.84;;;11.09;91.60
4085;BME280;2057;50.858;6.572;2023-03-22T07:46:46;99680.09;;;11.05;92.78
4085;BME280;2057;50.858;6.572;2023-03-22T07:49:12;99668.97;;;11.02;92.80
4085;BME280;2057;50.858;6.572;2023-03-22T08:10:32;99684.25;;;11.55;85.17
4085;BME280;2057;50.858;6.572;2023-03-22T08:12:57;99686.59;;;11.49;84.21
4085;BME280;2057;50.858;6.572;2023-03-22T08:15:23;99684.00;;;11.47;85.87
4085;BME280;2057;50.858;6.572;2023-03-22T08:17:48;99689.09;;;11.47;87.32
4085;BME280;2057;50.858;6.572;2023-03-22T08:20:14;99670.38;;;11.45;85.24
4085;BME280;2057;50.858;6.572;2023-03-22T08:22:42;99678.94;;;11.47;83.44
4085;BME280;2057;50.858;6.572;2023-03-22T08:25:08;99683.19;;;11.48;83.96
4085;BME280;2057;50.858;6.572;2023-03-22T08:27:34;99688.56;;;11.57;86.45
4085;BME280;2057;50.858;6.572;2023-03-22T08:29:59;99697.25;;;11.64;84.59
4085;BME280;2057;50.858;6.572;2023-03-22T08:32:25;99697.47;;;11.70;85.73
4085;BME280;2057;50.858;6.572;2023-03-22T08:34:50;99700.66;;;11.65;83.84
4085;BME280;2057;50.858;6.572;2023-03-22T08:37:17;99698.13;;;11.65;83.86
4085;BME280;2057;50.858;6.572;2023-03-22T08:39:44;99703.25;;;11.66;85.48
4085;BME280;2057;50.858;6.572;2023-03-22T08:42:10;99699.00;;;11.67;82.39
4085;BME280;2057;50.858;6.572;2023-03-22T08:44:38;99708.28;;;11.65;83.21
4085;BME280;2057;50.858;6.572;2023-03-22T08:47:04;99695.63;;;11.66;83.29
4085;BME280;2057;50.858;6.572;2023-03-22T08:49:29;99694.78;;;11.66;84.07
4085;BME280;2057;50.858;6.572;2023-03-22T08:51:55;99694.00;;;11.68;85.27
4085;BME280;2057;50.858;6.572;2023-03-22T08:54:21;99692.69;;;11.81;85.04
4085;BME280;2057;50.858;6.572;2023-03-22T08:56:47;99690.44;;;11.90;84.54
4085;BME280;2057;50.858;6.572;2023-03-22T08:59:12;99694.19;;;12.02;83.96
4085;BME280;2057;50.858;6.572;2023-03-22T09:01:38;99681.94;;;12.17;84.56
4085;BME280;2057;50.858;6.572;2023-03-22T09:04:03;99686.19;;;12.18;81.73
4085;BME280;2057;50.858;6.572;2023-03-22T09:06:29;99684.50;;;12.17;80.90
4085;BME280;2057;50.858;6.572;2023-03-22T09:08:55;99680.16;;;12.15;80.87
4085;BME280;2057;50.858;6.572;2023-03-22T09:11:21;99676.66;;;12.11;78.91
4085;BME280;2057;50.858;6.572;2023-03-22T09:13:47;99679.56;;;12.23;80.17
4085;BME280;2057;50.858;6.572;2023-03-22T09:16:13;99680.47;;;12.26;80.12
4085;BME280;2057;50.858;6.572;2023-03-22T09:18:41;99668.50;;;12.23;78.31
4085;BME280;2057;50.858;6.572;2023-03-22T09:21:07;99664.41;;;12.27;77.94
4085;BME280;2057;50.858;6.572;2023-03-22T09:23:34;99664.47;;;12.30;77.23
4085;BME280;2057;50.858;6.572;2023-03-22T09:26:03;99673.41;;;12.46;79.67
4085;BME280;2057;50.858;6.572;2023-03-22T09:28:30;99670.19;;;12.51;78.36
4085;BME280;2057;50.858;6.572;2023-03-22T09:31:03;99677.75;;;12.50;77.75
4085;BME280;2057;50.858;6.572;2023-03-22T09:33:29;99677.88;;;12.54;78.05
4085;BME280;2057;50.858;6.572;2023-03-22T09:35:55;99665.47;;;12.65;78.66
4085;BME280;2057;50.858;6.572;2023-03-22T09:38:21;99668.28;;;12.76;78.38
4085;BME280;2057;50.858;6.572;2023-03-22T09:40:52;99659.97;;;12.83;77.71
4085;BME280;2057;50.858;6.572;2023-03-22T09:43:30;99662.38;;;12.77;77.58
4085;BME280;2057;50.858;6.572;2023-03-22T09:45:57;99666.81;;;12.84;76.99
4085;BME280;2057;50.858;6.572;2023-03-22T09:48:32;99665.75;;;12.76;76.15
4085;BME280;2057;50.858;6.572;2023-03-22T09:51:01;99668.28;;;12.76;78.97
4085;BME280;2057;50.858;6.572;2023-03-22T09:53:28;99667.28;;;12.71;77.75
4085;BME280;2057;50.858;6.572;2023-03-22T09:56:06;99663.09;;;12.73;79.13
4085;BME280;2057;50.858;6.572;2023-03-22T10:01:27;99669.53;;;12.60;76.76
4085;BME280;2057;50.858;6.572;2023-03-22T10:04:18;99656.47;;;12.78;78.86
4085;BME280;2057;50.858;6.572;2023-03-22T10:06:49;99663.69;;;12.95;80.19
4085;BME280;2057;50.858;6.572;2023-03-22T10:14:50;99637.91;;;13.17;76.52
4085;BME280;2057;50.858;6.572;2023-03-22T10:17:24;99627.38;;;13.39;78.37
4085;BME280;2057;50.858;6.572;2023-03-22T10:20:00;99617.13;;;13.37;80.37
4085;BME280;2057;50.858;6.572;2023-03-22T10:22:34;99624.13;;;13.09;75.52
4085;BME280;2057;50.858;6.572;2023-03-22T10:25:01;99628.38;;;13.10;76.62
4085;BME280;2057;50.858;6.572;2023-03-22T10:27:28;99644.28;;;13.01;76.64
4085;BME280;2057;50.858;6.572;2023-03-22T10:33:11;99641.81;;;12.71;75.91
4085;BME280;2057;50.858;6.572;2023-03-22T10:35:37;99644.47;;;12.74;77.77
4085;BME280;2057;50.858;6.572;2023-03-22T10:38:05;99646.91;;;12.71;76.59
4085;BME280;2057;50.858;6.572;2023-03-22T10:40:35;99645.59;;;12.53;75.39
4085;BME280;2057;50.858;6.572;2023-03-22T10:43:20;99647.38;;;12.56;76.13
4085;BME280;2057;50.858;6.572;2023-03-22T10:45:47;99643.03;;;12.53;77.46
4085;BME280;2057;50.858;6.572;2023-03-22T10:48:24;99649.00;;;12.52;77.39
4085;BME280;2057;50.858;6.572;2023-03-22T10:50:50;99659.06;;;12.49;75.82
4085;BME280;2057;50.858;6.572;2023-03-22T10:55:50;99654.72;;;12.45;73.59
4085;BME280;2057;50.858;6.572;2023-03-22T10:58:20;99650.69;;;12.53;76.49
4085;BME280;2057;50.858;6.572;2023-03-22T11:00:51;99653.09;;;12.49;76.01
4085;BME280;2057;50.858;6.572;2023-03-22T11:06:19;99647.31;;;12.54;76.53
4085;BME280;2057;50.858;6.572;2023-03-22T11:08:51;99651.00;;;12.64;76.33
4085;BME280;2057;50.858;6.572;2023-03-22T11:11:22;99654.78;;;12.79;75.96
4085;BME280;2057;50.858;6.572;2023-03-22T11:19:23;99654.84;;;12.82;76.72
4085;BME280;2057;50.858;6.572;2023-03-22T11:21:51;99655.56;;;12.76;76.86
4085;BME280;2057;50.858;6.572;2023-03-22T11:24:17;99654.66;;;12.74;75.40
4085;BME280;2057;50.858;6.572;2023-03-22T11:27:01;99651.88;;;12.66;77.28
4085;BME280;2057;50.858;6.572;2023-03-22T11:29:27;99658.56;;;12.63;75.38
4085;BME280;2057;50.858;6.572;2023-03-22T11:31:57;99653.44;;;12.61;78.34
4085;BME280;2057;50.858;6.572;2023-03-22T11:34:26;99646.59;;;12.59;78.76
4085;BME280;2057;50.858;6.572;2023-03-22T11:36:51;99643.97;;;12.55;79.18
4085;BME280;2057;50.858;6.572;2023-03-22T11:39:24;99637.97;;;12.53;77.11
4085;BME280;2057;50.858;6.572;2023-03-22T11:41:55;99638.09;;;12.58;76.78
4085;BME280;2057;50.858;6.572;2023-03-22T11:44:21;99627.91;;;12.58;75.92
4085;BME280;2057;50.858;6.572;2023-03-22T11:46:56;99633.00;;;12.58;77.95
4085;BME280;2057;50.858;6.572;2023-03-22T11:49:27;99642.16;;;12.51;76.54
4085;BME280;2057;50.858;6.572;2023-03-22T11:52:06;99636.31;;;12.55;77.22
4085;BME280;2057;50.858;6.572;2023-03-22T11:54:34;99633.47;;;12.43;78.09
4085;BME280;2057;50.858;6.572;2023-03-22T11:57:02;99631.75;;;12.44;78.57
4085;BME280;2057;50.858;6.572;2023-03-22T11:59:36;99631.72;;;12.42;80.24
4085;BME280;2057;50.858;6.572;2023-03-22T12:02:22;99634.22;;;12.40;79.88
4085;BME280;2057;50.858;6.572;2023-03-22T12:04:53;99635.00;;;12.38;78.64
4085;BME280;2057;50.858;6.572;2023-03-22T12:07:21;99622.28;;;12.38;80.93
4085;BME280;2057;50.858;6.572;2023-03-22T12:12:18;99620.63;;;12.40;80.01
4085;BME280;2057;50.858;6.572;2023-03-22T12:14:53;99616.53;;;12.45;79.09
4085;BME280;2057;50.858;6.572;2023-03-22T12:17:27;99615.63;;;12.43;78.84
4085;BME280;2057;50.858;6.572;2023-03-22T12:20:20;99607.34;;;12.50;81.07
4085;BME280;2057;50.858;6.572;2023-03-22T12:22:53;99608.25;;;12.52;81.46
4085;BME280;2057;50.858;6.572;2023-03-22T12:25:31;99607.38;;;12.52;80.95
4085;BME280;2057;50.858;6.572;2023-03-22T12:28:05;99602.94;;;12.45;80.93
4085;BME280;2057;50.858;6.572;2023-03-22T12:30:42;99608.13;;;12.48;81.98
4085;BME280;2057;50.858;6.572;2023-03-22T12:33:26;99605.41;;;12.42;82.71
4085;BME280;2057;50.858;6.572;2023-03-22T12:35:56;99606.97;;;12.36;82.34
4085;BME280;2057;50.858;6.572;2023-03-22T12:38:54;99594.38;;;12.41;81.62
4085;BME280;2057;50.858;6.572;2023-03-22T12:41:27;99583.19;;;12.36;82.21
4085;BME280;2057;50.858;6.572;2023-03-22T12:43:56;99595.16;;;12.38;82.44
4085;BME280;2057;50.858;6.572;2023-03-22T12:46:28;99600.38;;;12.43;83.05
4085;BME280;2057;50.858;6.572;2023-03-22T12:49:24;99600.50;;;12.48;83.83
4085;BME280;2057;50.858;6.572;2023-03-22T12:51:54;99590.34;;;12.49;83.10
4085;BME280;2057;50.858;6.572;2023-03-22T12:54:25;99587.91;;;12.54;81.36
4085;BME280;2057;50.858;6.572;2023-03-22T12:56:51;99588.75;;;12.54;82.15
4085;BME280;2057;50.858;6.572;2023-03-22T12:59:21;99590.50;;;12.55;81.88
4085;BME280;2057;50.858;6.572;2023-03-22T13:02:14;99590.44;;;12.52;82.28
4085;BME280;2057;50.858;6.572;2023-03-22T13:09:45;99593.50;;;12.73;83.85
4085;BME280;2057;50.858;6.572;2023-03-22T13:17:41;99592.34;;;12.95;81.70
4085;BME280;2057;50.858;6.572;2023-03-22T13:27:55;99582.84;;;12.89;81.50
4085;BME280;2057;50.858;6.572;2023-03-22T13:32:52;99584.28;;;12.79;82.57
4085;BME280;2057;50.858;6.572;2023-03-22T13:35:48;99588.44;;;12.76;82.31
4085;BME280;2057;50.858;6.572;2023-03-22T13:38:21;99587.72;;;12.80;82.21
4085;BME280;2057;50.858;6.572;2023-03-22T13:41:12;99579.09;;;12.75;81.83
4085;BME280;2057;50.858;6.572;2023-03-22T13:43:49;99573.22;;;12.77;81.76
4085;BME280;2057;50.858;6.572;2023-03-22T14:01:52;99576.50;;;12.73;81.88
4085;BME280;2057;50.858;6.572;2023-03-22T14:04:37;99572.19;;;12.69;82.66
4085;BME280;2057;50.858;6.572;2023-03-22T14:09:43;99570.25;;;12.60;81.06
4085;BME280;2057;50.858;6.572;2023-03-22T14:14:44;99569.34;;;12.58;82.70
4085;BME280;2057;50.858;6.572;2023-03-22T14:17:41;99565.03;;;12.55;82.79
4085;BME280;2057;50.858;6.572;2023-03-22T14:20:11;99559.88;;;12.52;83.50
4085;BME280;2057;50.858;6.572;2023-03-22T14:22:43;99554.13;;;12.60;82.94
4085;BME280;2057;50.858;6.572;2023-03-22T14:25:17;99548.38;;;12.68;81.03
4085;BME280;2057;50.858;6.572;2023-03-22T14:27:43;99543.25;;;12.67;82.70
4085;BME280;2057;50.858;6.572;2023-03-22T14:30:38;99555.31;;;12.74;82.35
4085;BME280;2057;50.858;6.572;2023-03-22T14:33:11;99551.13;;;12.76;82.92
4085;BME280;2057;50.858;6.572;2023-03-22T14:35:44;99553.72;;;12.79;81.97
4085;BME280;2057;50.858;6.572;2023-03-22T14:38:21;99550.38;;;12.80;83.08
4085;BME280;2057;50.858;6.572;2023-03-22T14:41:05;99555.47;;;12.80;82.60
4085;BME280;2057;50.858;6.572;2023-03-22T14:43:30;99558.81;;;12.79;83.06
4085;BME280;2057;50.858;6.572;2023-03-22T14:46:05;99548.59;;;12.76;83.14
4085;BME280;2057;50.858;6.572;2023-03-22T14:48:34;99547.75;;;12.77;83.74
4085;BME280;2057;50.858;6.572;2023-03-22T14:51:02;99540.00;;;12.73;83.15
4085;BME280;2057;50.858;6.572;2023-03-22T14:53:36;99543.41;;;12.73;82.61
4085;BME280;2057;50.858;6.572;2023-03-22T14:56:15;99536.53;;;12.69;83.02
4085;BME280;2057;50.858;6.572;2023-03-22T14:58:43;99544.09;;;12.67;83.80
4085;BME280;2057;50.858;6.572;2023-03-22T15:01:23;99544.16;;;12.69;83.80
4085;BME280;2057;50.858;6.572;2023-03-22T15:03:53;99530.56;;;12.68;84.33
4085;BME280;2057;50.858;6.572;2023-03-22T15:06:22;99530.53;;;12.67;84.87
4085;BME280;2057;50.858;6.572;2023-03-22T15:08:48;99536.47;;;12.67;85.17
4085;BME280;2057;50.858;6.572;2023-03-22T15:11:14;99533.91;;;12.67;84.87
4085;BME280;2057;50.858;6.572;2023-03-22T15:13:41;99521.28;;;12.72;84.17
4085;BME280;2057;50.858;6.572;2023-03-22T15:16:11;99524.97;;;12.83;82.69
4085;BME280;2057;50.858;6.572;2023-03-22T15:18:39;99523.34;;;12.85;84.08
4085;BME280;2057;50.858;6.572;2023-03-22T15:21:05;99528.34;;;12.82;84.05
4085;BME280;2057;50.858;6.572;2023-03-22T15:23:39;99519.09;;;12.86;84.77
4085;BME280;2057;50.858;6.572;2023-03-22T15:26:16;99516.88;;;13.00;82.30